sensor_id;sensor_type;location;lat;lon;timestamp;P1;durP1;ratioP1;P2;durP2;ratioP2
8636;SDS011;4356;49.068;8.658;2022-09-13T00:00:48;2.17;;;2.00;;
8636;SDS011;4356;49.068;8.658;2022-09-13T00:03:15;2.07;;;1.97;;
8636;SDS011;4356;49.068;8.658;2022-09-13T00:05:41;2.97;;;2.30;;
8636;SDS011;4356;49.068;8.658;2022-09-13T00:08:07;3.00;;;2.30;;
8636;SDS011;4356;49.068;8.658;2022-09-13T00:10:34;2.13;;;2.03;;
8636;SDS011;4356;49.068;8.658;2022-09-13T00:13:01;3.23;;;2.30;;
8636;SDS011;4356;49.068;8.658;2022-09-13T00:15:28;2.13;;;1.93;;
8636;SDS011;4356;49.068;8.658;2022-09-13T00:17:54;2.10;;;2.00;;
8636;SDS011;4356;49.068;8.658;2022-09-13T00:20:20;2.10;;;2.00;;
8636;SDS011;4356;49.068;8.658;2022-09-13T00:22:45;2.27;;;2.17;;
8636;SDS011;4356;49.068;8.658;2022-09-13T00:25:11;2.40;;;2.20;;
8636;SDS011;4356;49.068;8.658;2022-09-13T00:27:37;2.60;;;2.40;;
8636;SDS011;4356;49.068;8.658;2022-09-13T00:30:03;1.80;;;1.80;;
8636;SDS011;4356;49.068;8.658;2022-09-13T00:32:32;2.80;;;2.60;;
8636;SDS011;4356;49.068;8.658;2022-09-13T00:34:59;3.80;;;1.80;;
8636;SDS011;4356;49.068;8.658;2022-09-13T00:37:25;2.23;;;2.03;;
8636;SDS011;4356;49.068;8.658;2022-09-13T00:39:51;2.13;;;2.03;;
8636;SDS011;4356;49.068;8.658;2022-09-13T00:42:23;1.90;;;1.80;;
8636;SDS011;4356;49.068;8.658;2022-09-13T00:44:56;2.20;;;2.00;;
8636;SDS011;4356;49.068;8.658;2022-09-13T00:47:25;2.10;;;2.00;;
8636;SDS011;4356;49.068;8.658;2022-09-13T00:50:40;2.10;;;2.00;;
8636;SDS011;4356;49.068;8.658;2022-09-13T00:53:15;2.07;;;1.97;;
8636;SDS011;4356;49.068;8.658;2022-09-13T00:58:28;1.87;;;1.77;;
8636;SDS011;4356;49.068;8.658;2022-09-13T01:00:58;2.30;;;2.10;;
8636;SDS011;4356;49.068;8.658;2022-09-13T01:03:27;2.23;;;2.13;;
8636;SDS011;4356;49.068;8.658;2022-09-13T01:05:59;2.40;;;2.20;;
8636;SDS011;4356;49.068;8.658;2022-09-13T01:08:28;1.83;;;1.80;;
8636;SDS011;4356;49.068;8.658;2022-09-13T01:10:56;2.20;;;2.10;;
8636;SDS011;4356;49.068;8.658;2022-09-13T01:13:25;2.70;;;2.30;;
8636;SDS011;4356;49.068;8.658;2022-09-13T01:15:55;2.10;;;2.00;;
8636;SDS011;4356;49.068;8.658;2022-09-13T01:18:21;3.13;;;2.00;;
8636;SDS011;4356;49.068;8.658;2022-09-13T01:40:24;3.50;;;2.27;;
8636;SDS011;4356;49.068;8.658;2022-09-13T01:43:17;2.10;;;2.00;;
8636;SDS011;4356;49.068;8.658;2022-09-13T01:46:07;1.93;;;1.83;;
8636;SDS011;4356;49.068;8.658;2022-09-13T01:48:46;4.47;;;2.00;;
8636;SDS011;4356;49.068;8.658;2022-09-13T01:51:32;3.67;;;2.03;;
8636;SDS011;4356;49.068;8.658;2022-09-13T01:56:54;7.40;;;2.17;;
8636;SDS011;4356;49.068;8.658;2022-09-13T02:03:08;2.00;;;1.90;;
8636;SDS011;4356;49.068;8.658;2022-09-13T02:11:11;4.90;;;2.20;;
8636;SDS011;4356;49.068;8.658;2022-09-13T02:13:40;2.23;;;2.03;;
8636;SDS011;4356;49.068;8.658;2022-09-13T02:16:14;2.30;;;2.10;;
8636;SDS011;4356;49.068;8.658;2022-09-13T02:18:51;2.33;;;2.00;;
8636;SDS011;4356;49.068;8.658;2022-09-13T02:21:25;1.90;;;1.90;;
8636;SDS011;4356;49.068;8.658;2022-09-13T02:24:05;2.00;;;1.90;;
8636;SDS011;4356;49.068;8.658;2022-09-13T02:26:33;2.23;;;1.97;;
8636;SDS011;4356;49.068;8.658;2022-09-13T02:29:03;3.87;;;2.30;;
8636;SDS011;4356;49.068;8.658;2022-09-13T02:31:41;2.47;;;2.37;;
8636;SDS011;4356;49.068;8.658;2022-09-13T02:34:24;2.03;;;1.97;;
8636;SDS011;4356;49.068;8.658;2022-09-13T02:36:56;2.00;;;1.90;;
8636;SDS011;4356;49.068;8.658;2022-09-13T02:39:24;2.30;;;2.10;;
8636;SDS011;4356;49.068;8.658;2022-09-13T02:41:59;2.50;;;2.30;;
8636;SDS011;4356;49.068;8.658;2022-09-13T02:44:39;3.20;;;2.00;;
8636;SDS011;4356;49.068;8.658;2022-09-13T02:55:27;2.10;;;2.00;;
8636;SDS011;4356;49.068;8.658;2022-09-13T03:00:54;2.03;;;1.93;;
8636;SDS011;4356;49.068;8.658;2022-09-13T03:03:20;2.40;;;2.20;;
8636;SDS011;4356;49.068;8.658;2022-09-13T03:05:46;2.20;;;2.00;;
8636;SDS011;4356;49.068;8.658;2022-09-13T03:08:12;2.40;;;2.30;;
8636;SDS011;4356;49.068;8.658;2022-09-13T03:13:39;2.20;;;2.10;;
8636;SDS011;4356;49.068;8.658;2022-09-13T03:25:12;2.27;;;1.93;;
8636;SDS011;4356;49.068;8.658;2022-09-13T03:30:16;2.40;;;2.30;;
8636;SDS011;4356;49.068;8.658;2022-09-13T03:32:50;2.80;;;2.60;;
8636;SDS011;4356;49.068;8.658;2022-09-13T03:43:06;2.70;;;2.10;;
8636;SDS011;4356;49.068;8.658;2022-09-13T03:45:40;2.30;;;2.20;;
8636;SDS011;4356;49.068;8.658;2022-09-13T03:48:13;2.90;;;2.07;;
8636;SDS011;4356;49.068;8.658;2022-09-13T03:50:40;2.07;;;1.97;;
8636;SDS011;4356;49.068;8.658;2022-09-13T03:53:09;2.13;;;2.07;;
8636;SDS011;4356;49.068;8.658;2022-09-13T03:55:42;2.70;;;2.10;;
8636;SDS011;4356;49.068;8.658;2022-09-13T03:58:12;2.20;;;2.03;;
8636;SDS011;4356;49.068;8.658;2022-09-13T04:00:39;1.77;;;1.77;;
8636;SDS011;4356;49.068;8.658;2022-09-13T04:03:05;3.20;;;2.10;;
8636;SDS011;4356;49.068;8.658;2022-09-13T04:05:32;4.50;;;2.10;;
8636;SDS011;4356;49.068;8.658;2022-09-13T04:07:58;2.10;;;2.00;;
8636;SDS011;4356;49.068;8.658;2022-09-13T04:10:26;2.03;;;1.90;;
8636;SDS011;4356;49.068;8.658;2022-09-13T04:12:52;4.53;;;2.27;;
8636;SDS011;4356;49.068;8.658;2022-09-13T04:15:18;2.10;;;2.00;;
8636;SDS011;4356;49.068;8.658;2022-09-13T04:17:44;4.50;;;2.20;;
8636;SDS011;4356;49.068;8.658;2022-09-13T04:20:10;5.67;;;2.30;;
8636;SDS011;4356;49.068;8.658;2022-09-13T04:22:35;2.77;;;2.33;;
8636;SDS011;4356;49.068;8.658;2022-09-13T04:25:01;3.37;;;2.07;;
8636;SDS011;4356;49.068;8.658;2022-09-13T04:27:27;2.77;;;2.57;;
8636;SDS011;4356;49.068;8.658;2022-09-13T04:29:53;2.40;;;2.30;;
8636;SDS011;4356;49.068;8.658;2022-09-13T04:32:18;4.27;;;2.40;;
8636;SDS011;4356;49.068;8.658;2022-09-13T04:34:44;2.57;;;2.20;;
8636;SDS011;4356;49.068;8.658;2022-09-13T04:37:11;3.63;;;2.63;;
8636;SDS011;4356;49.068;8.658;2022-09-13T04:39:37;2.93;;;2.17;;
8636;SDS011;4356;49.068;8.658;2022-09-13T04:42:03;2.20;;;2.10;;
8636;SDS011;4356;49.068;8.658;2022-09-13T04:44:29;2.30;;;2.10;;
8636;SDS011;4356;49.068;8.658;2022-09-13T04:46:55;2.57;;;2.20;;
8636;SDS011;4356;49.068;8.658;2022-09-13T04:49:21;2.70;;;2.40;;
8636;SDS011;4356;49.068;8.658;2022-09-13T04:51:46;2.93;;;2.60;;
8636;SDS011;4356;49.068;8.658;2022-09-13T04:54:12;2.40;;;2.30;;
8636;SDS011;4356;49.068;8.658;2022-09-13T04:56:39;2.50;;;2.30;;
8636;SDS011;4356;49.068;8.658;2022-09-13T04:59:04;3.17;;;2.40;;
8636;SDS011;4356;49.068;8.658;2022-09-13T05:01:31;4.93;;;2.37;;
8636;SDS011;4356;49.068;8.658;2022-09-13T05:03:56;2.70;;;2.50;;
8636;SDS011;4356;49.068;8.658;2022-09-13T05:06:22;3.57;;;2.40;;
8636;SDS011;4356;49.068;8.658;2022-09-13T05:08:48;2.17;;;2.07;;
8636;SDS011;4356;49.068;8.658;2022-09-13T05:11:18;2.60;;;1.97;;
8636;SDS011;4356;49.068;8.658;2022-09-13T05:13:47;2.70;;;2.50;;
8636;SDS011;4356;49.068;8.658;2022-09-13T05:16:17;3.03;;;2.40;;
8636;SDS011;4356;49.068;8.658;2022-09-13T05:18:42;2.03;;;1.93;;
8636;SDS011;4356;49.068;8.658;2022-09-13T05:21:08;2.87;;;2.27;;
8636;SDS011;4356;49.068;8.658;2022-09-13T05:23:33;2.77;;;2.57;;
8636;SDS011;4356;49.068;8.658;2022-09-13T05:26:00;2.90;;;2.80;;
8636;SDS011;4356;49.068;8.658;2022-09-13T05:28:30;4.90;;;2.70;;
8636;SDS011;4356;49.068;8.658;2022-09-13T05:30:58;3.60;;;2.50;;
8636;SDS011;4356;49.068;8.658;2022-09-13T05:33:26;2.70;;;2.50;;
8636;SDS011;4356;49.068;8.658;2022-09-13T05:35:53;2.80;;;2.60;;
8636;SDS011;4356;49.068;8.658;2022-09-13T05:38:19;2.80;;;2.60;;
8636;SDS011;4356;49.068;8.658;2022-09-13T05:40:45;2.80;;;2.60;;
8636;SDS011;4356;49.068;8.658;2022-09-13T05:43:12;3.93;;;2.50;;
8636;SDS011;4356;49.068;8.658;2022-09-13T05:45:38;3.20;;;2.60;;
8636;SDS011;4356;49.068;8.658;2022-09-13T05:48:04;2.93;;;2.73;;
8636;SDS011;4356;49.068;8.658;2022-09-13T05:50:30;2.80;;;2.60;;
8636;SDS011;4356;49.068;8.658;2022-09-13T05:52:56;3.43;;;2.67;;
8636;SDS011;4356;49.068;8.658;2022-09-13T05:55:22;3.87;;;3.50;;
8636;SDS011;4356;49.068;8.658;2022-09-13T05:57:48;9.90;;;2.90;;
8636;SDS011;4356;49.068;8.658;2022-09-13T06:00:14;2.53;;;2.43;;
8636;SDS011;4356;49.068;8.658;2022-09-13T06:02:41;2.63;;;2.53;;
8636;SDS011;4356;49.068;8.658;2022-09-13T06:05:07;2.83;;;2.63;;
8636;SDS011;4356;49.068;8.658;2022-09-13T06:07:34;3.90;;;3.20;;
8636;SDS011;4356;49.068;8.658;2022-09-13T06:10:01;9.93;;;3.20;;
8636;SDS011;4356;49.068;8.658;2022-09-13T06:12:28;8.93;;;3.20;;
8636;SDS011;4356;49.068;8.658;2022-09-13T06:14:54;4.17;;;3.00;;
8636;SDS011;4356;49.068;8.658;2022-09-13T06:17:20;2.90;;;2.70;;
8636;SDS011;4356;49.068;8.658;2022-09-13T06:19:45;2.83;;;2.67;;
8636;SDS011;4356;49.068;8.658;2022-09-13T06:22:11;4.23;;;2.70;;
8636;SDS011;4356;49.068;8.658;2022-09-13T06:24:36;3.10;;;2.90;;
8636;SDS011;4356;49.068;8.658;2022-09-13T06:27:02;3.90;;;3.07;;
8636;SDS011;4356;49.068;8.658;2022-09-13T06:29:28;3.57;;;3.10;;
8636;SDS011;4356;49.068;8.658;2022-09-13T06:31:54;3.47;;;3.07;;
8636;SDS011;4356;49.068;8.658;2022-09-13T06:34:19;3.37;;;3.07;;
8636;SDS011;4356;49.068;8.658;2022-09-13T06:36:45;3.33;;;3.13;;
8636;SDS011;4356;49.068;8.658;2022-09-13T06:39:11;5.30;;;2.97;;
8636;SDS011;4356;49.068;8.658;2022-09-13T06:41:36;3.93;;;2.93;;
8636;SDS011;4356;49.068;8.658;2022-09-13T06:44:02;4.00;;;3.10;;
8636;SDS011;4356;49.068;8.658;2022-09-13T06:46:30;9.77;;;3.23;;
8636;SDS011;4356;49.068;8.658;2022-09-13T06:49:01;5.07;;;3.33;;
8636;SDS011;4356;49.068;8.658;2022-09-13T06:51:28;3.33;;;3.03;;
8636;SDS011;4356;49.068;8.658;2022-09-13T06:53:55;5.80;;;3.03;;
8636;SDS011;4356;49.068;8.658;2022-09-13T06:56:21;3.40;;;3.10;;
8636;SDS011;4356;49.068;8.658;2022-09-13T06:58:50;2.93;;;2.77;;
8636;SDS011;4356;49.068;8.658;2022-09-13T07:01:20;3.13;;;2.90;;
8636;SDS011;4356;49.068;8.658;2022-09-13T07:03:59;5.80;;;3.30;;
8636;SDS011;4356;49.068;8.658;2022-09-13T07:06:33;3.67;;;3.40;;
8636;SDS011;4356;49.068;8.658;2022-09-13T07:09:01;3.63;;;3.30;;
8636;SDS011;4356;49.068;8.658;2022-09-13T07:11:30;4.60;;;3.07;;
8636;SDS011;4356;49.068;8.658;2022-09-13T07:13:58;4.30;;;3.17;;
8636;SDS011;4356;49.068;8.658;2022-09-13T07:16:28;4.37;;;3.10;;
8636;SDS011;4356;49.068;8.658;2022-09-13T07:18:56;3.47;;;2.87;;
8636;SDS011;4356;49.068;8.658;2022-09-13T07:21:30;3.80;;;2.73;;
8636;SDS011;4356;49.068;8.658;2022-09-13T07:23:56;3.27;;;2.83;;
8636;SDS011;4356;49.068;8.658;2022-09-13T07:26:22;3.23;;;2.90;;
8636;SDS011;4356;49.068;8.658;2022-09-13T07:28:50;8.57;;;2.70;;
8636;SDS011;4356;49.068;8.658;2022-09-13T07:31:18;2.87;;;2.67;;
8636;SDS011;4356;49.068;8.658;2022-09-13T07:33:47;2.77;;;2.50;;
8636;SDS011;4356;49.068;8.658;2022-09-13T07:36:17;3.47;;;2.70;;
8636;SDS011;4356;49.068;8.658;2022-09-13T07:38:43;3.27;;;2.93;;
8636;SDS011;4356;49.068;8.658;2022-09-13T07:41:13;3.30;;;3.10;;
8636;SDS011;4356;49.068;8.658;2022-09-13T07:43:41;3.27;;;3.07;;
8636;SDS011;4356;49.068;8.658;2022-09-13T07:46:08;3.27;;;2.83;;
8636;SDS011;4356;49.068;8.658;2022-09-13T07:48:36;4.03;;;2.77;;
8636;SDS011;4356;49.068;8.658;2022-09-13T07:51:07;4.30;;;2.60;;
8636;SDS011;4356;49.068;8.658;2022-09-13T07:53:38;2.77;;;2.57;;
8636;SDS011;4356;49.068;8.658;2022-09-13T07:56:08;3.63;;;2.90;;
8636;SDS011;4356;49.068;8.658;2022-09-13T07:58:34;2.90;;;2.40;;
8636;SDS011;4356;49.068;8.658;2022-09-13T08:01:17;2.83;;;2.30;;
8636;SDS011;4356;49.068;8.658;2022-09-13T08:03:52;2.40;;;2.20;;
8636;SDS011;4356;49.068;8.658;2022-09-13T08:06:19;3.47;;;2.17;;
8636;SDS011;4356;49.068;8.658;2022-09-13T08:08:45;2.60;;;2.40;;
8636;SDS011;4356;49.068;8.658;2022-09-13T08:11:13;2.57;;;2.37;;
8636;SDS011;4356;49.068;8.658;2022-09-13T08:13:43;2.67;;;2.47;;
8636;SDS011;4356;49.068;8.658;2022-09-13T08:16:13;3.70;;;2.30;;
8636;SDS011;4356;49.068;8.658;2022-09-13T08:18:44;5.03;;;3.00;;
8636;SDS011;4356;49.068;8.658;2022-09-13T08:21:11;2.77;;;2.57;;
8636;SDS011;4356;49.068;8.658;2022-09-13T08:23:36;2.93;;;2.40;;
8636;SDS011;4356;49.068;8.658;2022-09-13T08:26:02;2.50;;;2.33;;
8636;SDS011;4356;49.068;8.658;2022-09-13T08:28:30;4.20;;;2.40;;
8636;SDS011;4356;49.068;8.658;2022-09-13T08:31:01;2.30;;;2.20;;
8636;SDS011;4356;49.068;8.658;2022-09-13T08:33:28;3.50;;;2.47;;
8636;SDS011;4356;49.068;8.658;2022-09-13T08:35:54;3.13;;;2.10;;
8636;SDS011;4356;49.068;8.658;2022-09-13T08:38:22;2.40;;;2.20;;
8636;SDS011;4356;49.068;8.658;2022-09-13T08:40:57;2.37;;;2.17;;
8636;SDS011;4356;49.068;8.658;2022-09-13T08:43:30;2.27;;;2.17;;
8636;SDS011;4356;49.068;8.658;2022-09-13T08:46:25;2.50;;;2.40;;
8636;SDS011;4356;49.068;8.658;2022-09-13T08:48:55;2.50;;;2.40;;
8636;SDS011;4356;49.068;8.658;2022-09-13T08:54:05;2.10;;;2.00;;
8636;SDS011;4356;49.068;8.658;2022-09-13T08:59:48;2.30;;;1.70;;
8636;SDS011;4356;49.068;8.658;2022-09-13T09:05:15;2.83;;;2.20;;
8636;SDS011;4356;49.068;8.658;2022-09-13T09:08:03;2.03;;;1.93;;
8636;SDS011;4356;49.068;8.658;2022-09-13T09:10:45;2.60;;;2.23;;
8636;SDS011;4356;49.068;8.658;2022-09-13T09:13:26;3.07;;;2.20;;
8636;SDS011;4356;49.068;8.658;2022-09-13T09:18:51;2.53;;;2.30;;
8636;SDS011;4356;49.068;8.658;2022-09-13T09:21:25;4.50;;;2.50;;
8636;SDS011;4356;49.068;8.658;2022-09-13T09:23:52;1.83;;;1.83;;
8636;SDS011;4356;49.068;8.658;2022-09-13T09:37:55;3.30;;;2.10;;
8636;SDS011;4356;49.068;8.658;2022-09-13T09:40:41;6.03;;;2.27;;
8636;SDS011;4356;49.068;8.658;2022-09-13T09:46:12;2.00;;;1.90;;
8636;SDS011;4356;49.068;8.658;2022-09-13T09:48:53;1.73;;;1.63;;
8636;SDS011;4356;49.068;8.658;2022-09-13T09:51:22;2.30;;;2.17;;
8636;SDS011;4356;49.068;8.658;2022-09-13T09:53:53;2.90;;;2.43;;
8636;SDS011;4356;49.068;8.658;2022-09-13T09:58:58;2.07;;;1.97;;
8636;SDS011;4356;49.068;8.658;2022-09-13T10:06:42;1.67;;;1.63;;
8636;SDS011;4356;49.068;8.658;2022-09-13T10:16:49;3.40;;;2.17;;
8636;SDS011;4356;49.068;8.658;2022-09-13T10:19:30;1.80;;;1.70;;
8636;SDS011;4356;49.068;8.658;2022-09-13T10:22:04;1.80;;;1.70;;
8636;SDS011;4356;49.068;8.658;2022-09-13T10:24:31;1.90;;;1.80;;
8636;SDS011;4356;49.068;8.658;2022-09-13T10:26:57;1.70;;;1.70;;
8636;SDS011;4356;49.068;8.658;2022-09-13T10:29:25;1.83;;;1.73;;
8636;SDS011;4356;49.068;8.658;2022-09-13T10:31:52;1.90;;;1.80;;
8636;SDS011;4356;49.068;8.658;2022-09-13T10:34:28;1.57;;;1.50;;
8636;SDS011;4356;49.068;8.658;2022-09-13T10:42:26;1.70;;;1.60;;
8636;SDS011;4356;49.068;8.658;2022-09-13T10:44:54;6.00;;;2.03;;
8636;SDS011;4356;49.068;8.658;2022-09-13T10:50:24;2.50;;;2.20;;
8636;SDS011;4356;49.068;8.658;2022-09-13T10:52:56;6.73;;;2.80;;
8636;SDS011;4356;49.068;8.658;2022-09-13T11:11:36;2.20;;;2.10;;
8636;SDS011;4356;49.068;8.658;2022-09-13T11:23:25;2.30;;;2.10;;
8636;SDS011;4356;49.068;8.658;2022-09-13T11:29:14;2.13;;;2.00;;
8636;SDS011;4356;49.068;8.658;2022-09-13T11:34:33;1.80;;;1.70;;
8636;SDS011;4356;49.068;8.658;2022-09-13T11:39:57;1.97;;;1.83;;
8636;SDS011;4356;49.068;8.658;2022-09-13T11:45:26;2.03;;;1.70;;
8636;SDS011;4356;49.068;8.658;2022-09-13T11:55:58;2.30;;;2.10;;
8636;SDS011;4356;49.068;8.658;2022-09-13T11:58:41;3.93;;;1.80;;
8636;SDS011;4356;49.068;8.658;2022-09-13T12:01:12;1.87;;;1.77;;
8636;SDS011;4356;49.068;8.658;2022-09-13T12:06:14;2.33;;;2.03;;
8636;SDS011;4356;49.068;8.658;2022-09-13T12:08:50;2.20;;;2.10;;
8636;SDS011;4356;49.068;8.658;2022-09-13T12:11:30;1.70;;;1.60;;
8636;SDS011;4356;49.068;8.658;2022-09-13T12:14:00;1.50;;;1.40;;
8636;SDS011;4356;49.068;8.658;2022-09-13T12:16:39;2.20;;;1.63;;
8636;SDS011;4356;49.068;8.658;2022-09-13T12:22:07;1.87;;;1.77;;
8636;SDS011;4356;49.068;8.658;2022-09-13T12:24:40;1.90;;;1.80;;
8636;SDS011;4356;49.068;8.658;2022-09-13T12:27:12;2.73;;;2.53;;
8636;SDS011;4356;49.068;8.658;2022-09-13T12:30:08;2.07;;;1.87;;
8636;SDS011;4356;49.068;8.658;2022-09-13T12:32:36;2.80;;;1.80;;
8636;SDS011;4356;49.068;8.658;2022-09-13T12:35:04;1.87;;;1.77;;
8636;SDS011;4356;49.068;8.658;2022-09-13T12:43:04;2.03;;;1.93;;
8636;SDS011;4356;49.068;8.658;2022-09-13T12:46:07;3.90;;;1.40;;
8636;SDS011;4356;49.068;8.658;2022-09-13T12:58:05;1.90;;;1.80;;
8636;SDS011;4356;49.068;8.658;2022-09-13T13:03:25;1.80;;;1.70;;
8636;SDS011;4356;49.068;8.658;2022-09-13T13:06:04;64.67;;;5.63;;
8636;SDS011;4356;49.068;8.658;2022-09-13T13:08:52;1.90;;;1.57;;
8636;SDS011;4356;49.068;8.658;2022-09-13T13:11:22;2.10;;;1.60;;
8636;SDS011;4356;49.068;8.658;2022-09-13T13:14:00;1.73;;;1.63;;
8636;SDS011;4356;49.068;8.658;2022-09-13T13:16:37;2.57;;;1.97;;
8636;SDS011;4356;49.068;8.658;2022-09-13T13:21:53;1.53;;;1.43;;
8636;SDS011;4356;49.068;8.658;2022-09-13T13:26:49;3.30;;;1.60;;
8636;SDS011;4356;49.068;8.658;2022-09-13T13:29:28;4.37;;;1.40;;
8636;SDS011;4356;49.068;8.658;2022-09-13T13:37:21;5.37;;;4.87;;
8636;SDS011;4356;49.068;8.658;2022-09-13T13:42:47;1.67;;;1.57;;
8636;SDS011;4356;49.068;8.658;2022-09-13T13:45:15;1.90;;;1.80;;
8636;SDS011;4356;49.068;8.658;2022-09-13T13:48:07;1.67;;;1.57;;
8636;SDS011;4356;49.068;8.658;2022-09-13T13:50:43;2.60;;;1.67;;
8636;SDS011;4356;49.068;8.658;2022-09-13T13:53:40;1.70;;;1.00;;
8636;SDS011;4356;49.068;8.658;2022-09-13T13:56:19;5.70;;;1.40;;
8636;SDS011;4356;49.068;8.658;2022-09-13T14:01:25;1.40;;;1.40;;
8636;SDS011;4356;49.068;8.658;2022-09-13T14:20:34;1.65;;;1.52;;
8636;SDS011;4356;49.068;8.658;2022-09-13T14:25:56;2.78;;;2.55;;
8636;SDS011;4356;49.068;8.658;2022-09-13T14:28:24;1.77;;;1.20;;
8636;SDS011;4356;49.068;8.658;2022-09-13T14:30:57;1.83;;;1.40;;
8636;SDS011;4356;49.068;8.658;2022-09-13T14:33:28;1.13;;;1.10;;
8636;SDS011;4356;49.068;8.658;2022-09-13T14:35:57;1.67;;;1.27;;
8636;SDS011;4356;49.068;8.658;2022-09-13T14:38:25;3.00;;;1.15;;
8636;SDS011;4356;49.068;8.658;2022-09-13T14:40:59;1.25;;;1.25;;
8636;SDS011;4356;49.068;8.658;2022-09-13T14:43:37;2.38;;;1.27;;
8636;SDS011;4356;49.068;8.658;2022-09-13T14:54:18;1.98;;;1.00;;
8636;SDS011;4356;49.068;8.658;2022-09-13T14:56:55;1.10;;;0.82;;
8636;SDS011;4356;49.068;8.658;2022-09-13T14:59:31;1.00;;;1.00;;
8636;SDS011;4356;49.068;8.658;2022-09-13T15:02:13;1.02;;;0.90;;
8636;SDS011;4356;49.068;8.658;2022-09-13T15:04:46;1.17;;;1.10;;
8636;SDS011;4356;49.068;8.658;2022-09-13T15:07:22;1.58;;;1.30;;
8636;SDS011;4356;49.068;8.658;2022-09-13T15:12:32;0.70;;;0.70;;
8636;SDS011;4356;49.068;8.658;2022-09-13T15:20:51;0.95;;;0.90;;
8636;SDS011;4356;49.068;8.658;2022-09-13T15:23:21;2.75;;;0.93;;
8636;SDS011;4356;49.068;8.658;2022-09-13T15:26:05;1.10;;;1.00;;
8636;SDS011;4356;49.068;8.658;2022-09-13T15:31:07;1.55;;;0.75;;
8636;SDS011;4356;49.068;8.658;2022-09-13T15:33:35;3.33;;;1.25;;
8636;SDS011;4356;49.068;8.658;2022-09-13T15:36:43;1.83;;;0.85;;
8636;SDS011;4356;49.068;8.658;2022-09-13T15:41:34;0.80;;;0.80;;
8636;SDS011;4356;49.068;8.658;2022-09-13T15:44:03;1.08;;;1.08;;
8636;SDS011;4356;49.068;8.658;2022-09-13T15:46:30;0.90;;;0.90;;
8636;SDS011;4356;49.068;8.658;2022-09-13T15:49:00;1.10;;;1.00;;
8636;SDS011;4356;49.068;8.658;2022-09-13T15:51:29;0.90;;;0.90;;
8636;SDS011;4356;49.068;8.658;2022-09-13T15:53:55;7.05;;;1.17;;
8636;SDS011;4356;49.068;8.658;2022-09-13T15:56:21;5.55;;;1.50;;
8636;SDS011;4356;49.068;8.658;2022-09-13T15:58:59;5.43;;;1.00;;
8636;SDS011;4356;49.068;8.658;2022-09-13T16:01:24;1.85;;;1.02;;
8636;SDS011;4356;49.068;8.658;2022-09-13T16:03:51;4.85;;;1.00;;
8636;SDS011;4356;49.068;8.658;2022-09-13T16:06:17;2.83;;;1.10;;
8636;SDS011;4356;49.068;8.658;2022-09-13T16:08:43;2.90;;;1.00;;
8636;SDS011;4356;49.068;8.658;2022-09-13T16:11:08;0.85;;;0.85;;
8636;SDS011;4356;49.068;8.658;2022-09-13T16:13:34;1.83;;;1.20;;
8636;SDS011;4356;49.068;8.658;2022-09-13T16:16:00;0.73;;;0.73;;
8636;SDS011;4356;49.068;8.658;2022-09-13T16:18:27;1.15;;;0.77;;
8636;SDS011;4356;49.068;8.658;2022-09-13T16:20:52;2.70;;;1.05;;
8636;SDS011;4356;49.068;8.658;2022-09-13T16:23:18;3.42;;;0.90;;
8636;SDS011;4356;49.068;8.658;2022-09-13T16:25:43;0.85;;;0.85;;
8636;SDS011;4356;49.068;8.658;2022-09-13T16:28:15;1.73;;;0.90;;
8636;SDS011;4356;49.068;8.658;2022-09-13T16:30:45;1.30;;;0.90;;
8636;SDS011;4356;49.068;8.658;2022-09-13T16:33:11;0.98;;;0.82;;
8636;SDS011;4356;49.068;8.658;2022-09-13T16:35:37;1.45;;;0.80;;
8636;SDS011;4356;49.068;8.658;2022-09-13T16:38:02;3.50;;;1.10;;
8636;SDS011;4356;49.068;8.658;2022-09-13T16:40:28;1.92;;;1.27;;
8636;SDS011;4356;49.068;8.658;2022-09-13T16:42:54;0.85;;;0.85;;
8636;SDS011;4356;49.068;8.658;2022-09-13T16:45:19;0.82;;;0.82;;
8636;SDS011;4356;49.068;8.658;2022-09-13T16:47:45;0.90;;;0.90;;
8636;SDS011;4356;49.068;8.658;2022-09-13T16:50:11;2.10;;;1.48;;
8636;SDS011;4356;49.068;8.658;2022-09-13T16:52:37;1.20;;;1.10;;
8636;SDS011;4356;49.068;8.658;2022-09-13T16:55:03;1.90;;;1.10;;
8636;SDS011;4356;49.068;8.658;2022-09-13T16:57:30;1.25;;;1.02;;
8636;SDS011;4356;49.068;8.658;2022-09-13T16:59:56;1.65;;;1.13;;
8636;SDS011;4356;49.068;8.658;2022-09-13T17:02:22;5.18;;;0.90;;
8636;SDS011;4356;49.068;8.658;2022-09-13T17:04:49;2.95;;;1.23;;
8636;SDS011;4356;49.068;8.658;2022-09-13T17:07:15;1.27;;;1.08;;
8636;SDS011;4356;49.068;8.658;2022-09-13T17:09:40;2.22;;;1.20;;
8636;SDS011;4356;49.068;8.658;2022-09-13T17:12:07;1.92;;;1.27;;
8636;SDS011;4356;49.068;8.658;2022-09-13T17:14:34;6.03;;;1.60;;
8636;SDS011;4356;49.068;8.658;2022-09-13T17:17:00;4.40;;;1.38;;
8636;SDS011;4356;49.068;8.658;2022-09-13T17:19:27;2.72;;;1.50;;
8636;SDS011;4356;49.068;8.658;2022-09-13T17:22:00;3.03;;;1.58;;
8636;SDS011;4356;49.068;8.658;2022-09-13T17:24:27;5.03;;;1.88;;
8636;SDS011;4356;49.068;8.658;2022-09-13T17:26:55;6.97;;;1.42;;
8636;SDS011;4356;49.068;8.658;2022-09-13T17:29:21;5.10;;;1.70;;
8636;SDS011;4356;49.068;8.658;2022-09-13T17:31:49;1.52;;;1.48;;
8636;SDS011;4356;49.068;8.658;2022-09-13T17:34:15;1.80;;;1.67;;
8636;SDS011;4356;49.068;8.658;2022-09-13T17:36:41;7.17;;;2.10;;
8636;SDS011;4356;49.068;8.658;2022-09-13T17:39:07;1.97;;;1.57;;
8636;SDS011;4356;49.068;8.658;2022-09-13T17:41:33;2.33;;;1.55;;
8636;SDS011;4356;49.068;8.658;2022-09-13T17:43:58;3.03;;;1.80;;
8636;SDS011;4356;49.068;8.658;2022-09-13T17:46:25;2.93;;;1.60;;
8636;SDS011;4356;49.068;8.658;2022-09-13T17:48:53;4.20;;;1.63;;
8636;SDS011;4356;49.068;8.658;2022-09-13T17:51:22;2.73;;;1.43;;
8636;SDS011;4356;49.068;8.658;2022-09-13T17:53:50;3.58;;;1.73;;
8636;SDS011;4356;49.068;8.658;2022-09-13T17:56:18;2.10;;;1.77;;
8636;SDS011;4356;49.068;8.658;2022-09-13T17:58:45;2.67;;;1.67;;
8636;SDS011;4356;49.068;8.658;2022-09-13T18:01:11;5.43;;;2.00;;
8636;SDS011;4356;49.068;8.658;2022-09-13T18:03:37;3.60;;;2.20;;
8636;SDS011;4356;49.068;8.658;2022-09-13T18:06:03;3.73;;;2.07;;
8636;SDS011;4356;49.068;8.658;2022-09-13T18:08:32;6.57;;;1.90;;
8636;SDS011;4356;49.068;8.658;2022-09-13T18:11:03;5.47;;;2.15;;
8636;SDS011;4356;49.068;8.658;2022-09-13T18:13:34;4.27;;;2.23;;
8636;SDS011;4356;49.068;8.658;2022-09-13T18:16:01;2.90;;;1.80;;
8636;SDS011;4356;49.068;8.658;2022-09-13T18:18:29;5.83;;;2.00;;
8636;SDS011;4356;49.068;8.658;2022-09-13T18:20:55;4.33;;;2.07;;
8636;SDS011;4356;49.068;8.658;2022-09-13T18:23:21;4.70;;;2.17;;
8636;SDS011;4356;49.068;8.658;2022-09-13T18:25:57;2.70;;;2.03;;
8636;SDS011;4356;49.068;8.658;2022-09-13T18:28:24;4.90;;;2.13;;
8636;SDS011;4356;49.068;8.658;2022-09-13T18:30:51;2.10;;;2.00;;
8636;SDS011;4356;49.068;8.658;2022-09-13T18:33:17;2.37;;;2.20;;
8636;SDS011;4356;49.068;8.658;2022-09-13T18:35:54;2.97;;;2.03;;
8636;SDS011;4356;49.068;8.658;2022-09-13T18:38:23;20.30;;;2.87;;
8636;SDS011;4356;49.068;8.658;2022-09-13T18:43:29;3.63;;;2.10;;
8636;SDS011;4356;49.068;8.658;2022-09-13T18:45:56;3.10;;;1.93;;
8636;SDS011;4356;49.068;8.658;2022-09-13T18:48:28;2.07;;;1.97;;
8636;SDS011;4356;49.068;8.658;2022-09-13T18:50:54;5.00;;;1.97;;
8636;SDS011;4356;49.068;8.658;2022-09-13T18:53:20;2.40;;;1.83;;
8636;SDS011;4356;49.068;8.658;2022-09-13T18:55:46;4.70;;;2.03;;
8636;SDS011;4356;49.068;8.658;2022-09-13T18:58:11;1.80;;;1.70;;
8636;SDS011;4356;49.068;8.658;2022-09-13T19:00:37;1.90;;;1.77;;
8636;SDS011;4356;49.068;8.658;2022-09-13T19:03:03;2.50;;;2.30;;
8636;SDS011;4356;49.068;8.658;2022-09-13T19:05:29;4.87;;;1.90;;
8636;SDS011;4356;49.068;8.658;2022-09-13T19:07:55;4.43;;;1.80;;
8636;SDS011;4356;49.068;8.658;2022-09-13T19:10:21;5.83;;;5.30;;
8636;SDS011;4356;49.068;8.658;2022-09-13T19:12:52;4.90;;;4.37;;
8636;SDS011;4356;49.068;8.658;2022-09-13T19:15:18;4.90;;;4.40;;
8636;SDS011;4356;49.068;8.658;2022-09-13T19:17:44;5.80;;;3.87;;
8636;SDS011;4356;49.068;8.658;2022-09-13T19:20:09;5.93;;;2.90;;
8636;SDS011;4356;49.068;8.658;2022-09-13T19:22:35;3.40;;;2.80;;
8636;SDS011;4356;49.068;8.658;2022-09-13T19:25:00;3.10;;;2.83;;
8636;SDS011;4356;49.068;8.658;2022-09-13T19:27:26;10.33;;;2.50;;
8636;SDS011;4356;49.068;8.658;2022-09-13T19:29:51;4.10;;;2.77;;
8636;SDS011;4356;49.068;8.658;2022-09-13T19:32:17;3.23;;;2.40;;
8636;SDS011;4356;49.068;8.658;2022-09-13T19:34:43;2.50;;;2.30;;
8636;SDS011;4356;49.068;8.658;2022-09-13T19:37:09;4.90;;;2.40;;